Leveretts Chapel, Texas
Current Conditions -  °F | °C
As of 1:55 PM on Friday 31 Oct 2014 (Local Time) from KRFI Reporting Station
Clear Clear  
Wind Chill: 68°   Ceiling: Unl
Heat Index: 68°   Visibility: 10mi
Dew Point: 43°   Wind: 10mph
Humidity: 40%   Direction: 360°N
Pressure: 30.22"   Gusts: 16mph
Location:  32.2818°N, 94.951°W
Report Text: KRFI 311855Z AUTO 36009G14KT 10SM CLR 20/06 A3022 RMK AO2 T02020061
Loading
Personal Weather Stations






























Interactive Weather Map
Tropical Storm Tracking
New forecast layout! Learn more

10-Day Weather Forecast

Advertisements
Track Severe Weather on mobile